Time;durP1;ratioP1;P1;durP2;ratioP2;P2;SDS_P1;SDS_P2;PMS_P1;PMS_P2;Temp;Humidity;BMP_temperature;BMP_pressure;BME280_temperature;BME280_humidity;BME280_pressure;Samples;Min_cycle;Max_cycle;Signal;HPM_P1;HPM_P2
2022/04/16 00:01:47;;;;;;;21.65;11.63;;;11.20;99.90;;;;;;5091764;28;20051;-66
2022/04/16 00:04:13;;;;;;;25.23;11.55;;;11.20;99.90;;;;;;5091755;28;20055;-66
2022/04/16 00:06:39;;;;;;;28.50;13.13;;;11.20;99.90;;;;;;5091736;28;20432;-67
2022/04/16 00:09:04;;;;;;;28.05;12.70;;;11.20;99.90;;;;;;5092018;28;20063;-66
2022/04/16 00:11:30;;;;;;;28.15;12.95;;;11.30;99.90;;;;;;5078112;28;20433;-67
2022/04/16 00:13:56;;;;;;;28.23;13.63;;;11.30;99.90;;;;;;5071323;28;20101;-66
2022/04/16 00:16:21;;;;;;;36.17;15.82;;;11.20;99.90;;;;;;5082225;28;20044;-67
2022/04/16 00:18:48;;;;;;;32.40;14.82;;;11.20;99.90;;;;;;5091453;28;20421;-66
2022/04/16 00:21:14;;;;;;;31.55;14.35;;;11.20;99.90;;;;;;5091589;28;20016;-66
2022/04/16 00:23:43;;;;;;;34.65;16.50;;;11.20;99.90;;;;;;5091190;28;20043;-67
2022/04/16 00:26:12;;;;;;;34.50;15.48;;;11.20;99.90;;;;;;5081511;28;20118;-67
2022/04/16 00:28:39;;;;;;;33.72;15.50;;;11.20;99.90;;;;;;5070405;28;20031;-67
2022/04/16 00:31:05;;;;;;;32.47;15.63;;;11.10;99.90;;;;;;5086705;28;20077;-66
2022/04/16 00:33:33;;;;;;;37.28;16.98;;;11.10;99.90;;;;;;5090834;28;20027;-68
2022/04/16 00:36:00;;;;;;;39.50;17.48;;;11.10;99.90;;;;;;5091021;28;20052;-66
2022/04/16 00:38:26;;;;;;;36.88;17.80;;;11.20;99.90;;;;;;5091293;28;20107;-67
2022/04/16 00:40:52;;;;;;;40.47;18.30;;;11.20;99.90;;;;;;5085080;28;20120;-67
2022/04/16 00:43:27;;;;;;;35.85;17.13;;;11.20;99.90;;;;;;5070996;28;20464;-67
2022/04/16 00:45:53;;;;;;;40.40;17.70;;;11.20;99.90;;;;;;5071035;28;20083;-66
2022/04/16 00:48:23;;;;;;;39.72;18.00;;;11.20;99.90;;;;;;5088916;28;20028;-67
2022/04/16 00:50:51;;;;;;;41.70;18.73;;;11.20;99.90;;;;;;5091296;28;20020;-67
2022/04/16 00:53:17;;;;;;;43.40;19.30;;;11.20;99.90;;;;;;5090996;28;20024;-67
2022/04/16 00:55:43;;;;;;;38.42;18.58;;;11.20;99.90;;;;;;5086737;28;20524;-67
2022/04/16 00:58:09;;;;;;;41.83;18.83;;;11.10;99.90;;;;;;5070644;28;20029;-66
2022/04/16 01:00:35;;;;;;;41.88;19.83;;;11.00;99.90;;;;;;5081945;28;20589;-66
2022/04/16 01:03:02;;;;;;;45.33;18.63;;;10.90;99.90;;;;;;5087341;28;20066;-66
2022/04/16 01:05:28;;;;;;;41.05;19.20;;;10.70;99.90;;;;;;5087536;28;20048;-68
2022/04/16 01:07:59;;;;;;;42.88;19.40;;;10.50;99.90;;;;;;5087858;28;20381;-66
2022/04/16 01:10:27;;;;;;;40.50;19.05;;;10.40;99.90;;;;;;5068261;28;20513;-66
2022/04/16 01:12:58;;;;;;;50.83;20.48;;;10.30;99.90;;;;;;5069932;28;20033;-67
2022/04/16 01:15:25;;;;;;;40.08;19.08;;;10.10;99.90;;;;;;5080954;28;20048;-67
2022/04/16 01:17:52;;;;;;;46.10;19.42;;;10.00;99.90;;;;;;5090522;28;20385;-66
2022/04/16 01:20:18;;;;;;;42.33;19.10;;;9.90;99.90;;;;;;5090636;28;20024;-67
2022/04/16 01:22:46;;;;;;;48.08;19.35;;;9.80;99.90;;;;;;5090264;28;20084;-67
2022/04/16 01:25:12;;;;;;;47.72;18.08;;;9.70;99.90;;;;;;5090358;28;20111;-66
2022/04/16 01:27:43;;;;;;;38.00;17.88;;;9.70;99.90;;;;;;5072773;28;20090;-67
2022/04/16 01:30:14;;;;;;;40.42;17.52;;;9.70;99.90;;;;;;5077449;28;20035;-67
2022/04/16 01:32:43;;;;;;;39.95;18.15;;;9.60;99.90;;;;;;5090659;28;20020;-66
2022/04/16 01:35:10;;;;;;;42.65;17.67;;;9.50;99.90;;;;;;5089002;28;20377;-66
2022/04/16 01:37:37;;;;;;;41.78;17.63;;;9.40;99.90;;;;;;5090009;28;20020;-67
2022/04/16 01:40:07;;;;;;;40.58;17.13;;;9.20;99.90;;;;;;5090900;28;20036;-67
2022/04/16 01:42:33;;;;;;;50.85;19.23;;;9.10;99.90;;;;;;5084577;28;20451;-67
2022/04/16 01:45:02;;;;;;;45.72;19.27;;;9.00;99.90;;;;;;5074464;28;20112;-66
2022/04/16 01:47:29;;;;;;;44.53;19.15;;;8.90;99.90;;;;;;5087026;28;20298;-67
2022/04/16 01:49:55;;;;;;;48.22;20.00;;;8.80;99.90;;;;;;5071051;28;20031;-67
2022/04/16 01:52:23;;;;;;;50.35;19.83;;;8.70;99.90;;;;;;5070970;28;20082;-67
2022/04/16 01:54:49;;;;;;;45.20;18.80;;;8.70;99.90;;;;;;5070648;28;20091;-67
2022/04/16 01:57:18;;;;;;;43.90;19.08;;;8.70;99.90;;;;;;5078118;28;20165;-67
2022/04/16 01:59:48;;;;;;;50.20;19.85;;;8.60;99.90;;;;;;5090932;28;20134;-65
2022/04/16 02:02:14;;;;;;;46.50;17.48;;;8.70;99.90;;;;;;5088576;28;20043;-67
2022/04/16 02:04:41;;;;;;;42.60;17.88;;;8.70;99.90;;;;;;5093658;28;20021;-67
2022/04/16 02:07:06;;;;;;;49.78;19.35;;;8.70;99.90;;;;;;5084390;28;20043;-68
2022/04/16 02:09:32;;;;;;;38.17;16.98;;;8.60;99.90;;;;;;5073786;28;20017;-67
2022/04/16 02:11:58;;;;;;;39.60;17.30;;;8.60;99.90;;;;;;5073828;28;20501;-67
2022/04/16 02:14:24;;;;;;;42.20;17.35;;;8.60;99.90;;;;;;5073808;28;20254;-66
2022/04/16 02:16:50;;;;;;;39.60;17.40;;;8.60;99.90;;;;;;5073920;28;20738;-65
2022/04/16 02:19:16;;;;;;;40.88;17.50;;;8.60;99.90;;;;;;5077238;28;20040;-66
2022/04/16 02:21:45;;;;;;;46.22;19.23;;;8.60;99.90;;;;;;5073664;28;20025;-66
2022/04/16 02:24:13;;;;;;;42.00;17.55;;;8.60;99.90;;;;;;5073665;28;20511;-67
2022/04/16 02:26:42;;;;;;;42.67;17.48;;;8.60;99.90;;;;;;5073155;28;20029;-67
2022/04/16 02:29:10;;;;;;;44.28;19.80;;;8.60;99.90;;;;;;5091012;28;20078;-66
2022/04/16 02:31:39;;;;;;;50.45;19.23;;;8.60;99.90;;;;;;5093173;28;20060;-67
2022/04/16 02:34:07;;;;;;;48.08;21.23;;;8.50;99.90;;;;;;5091686;28;20023;-67
2022/04/16 02:36:33;;;;;;;48.22;19.83;;;8.60;99.90;;;;;;5093499;28;20046;-67
2022/04/16 02:38:59;;;;;;;55.60;22.63;;;8.70;99.90;;;;;;5093051;28;20031;-67
2022/04/16 02:41:25;;;;;;;55.92;22.13;;;8.60;99.90;;;;;;5093149;28;20028;-66
2022/04/16 02:43:54;;;;;;;54.28;23.23;;;8.50;99.90;;;;;;5093337;28;20126;-67
2022/04/16 02:49:08;;;;;;;57.90;23.50;;;8.50;99.90;;;;;;5085972;28;20063;-67
2022/04/16 02:51:34;;;;;;;60.17;22.35;;;8.40;99.90;;;;;;5082608;28;20392;-68
2022/04/16 02:54:00;;;;;;;58.38;22.08;;;8.30;99.90;;;;;;5072520;28;20116;-67
2022/04/16 02:56:25;;;;;;;60.55;22.08;;;8.30;99.90;;;;;;5069237;28;20112;-67
2022/04/16 02:58:51;;;;;;;66.20;24.88;;;8.20;99.90;;;;;;5083090;28;20518;-66
2022/04/16 03:01:17;;;;;;;67.32;24.88;;;8.10;99.90;;;;;;5089813;28;20063;-66
2022/04/16 03:03:43;;;;;;;64.88;23.80;;;8.10;99.90;;;;;;5080548;28;20024;-66
2022/04/16 03:06:09;;;;;;;66.30;24.63;;;8.00;99.90;;;;;;5072626;28;20036;-66
2022/04/16 03:08:35;;;;;;;65.78;25.08;;;8.00;99.90;;;;;;5082819;28;20430;-66
2022/04/16 03:11:04;;;;;;;59.00;23.58;;;7.90;99.90;;;;;;5092619;28;20059;-67
2022/04/16 03:13:30;;;;;;;63.40;24.95;;;7.80;99.90;;;;;;5092817;28;20468;-67
2022/04/16 03:18:40;;;;;;;77.07;27.48;;;7.70;99.90;;;;;;5084837;28;20043;-66
2022/04/16 03:21:06;;;;;;;76.88;27.20;;;7.70;99.90;;;;;;5072312;28;20024;-66
2022/04/16 03:23:31;;;;;;;76.20;27.85;;;7.60;99.90;;;;;;5072430;28;20031;-66
2022/04/16 03:25:59;;;;;;;75.32;29.17;;;7.60;99.90;;;;;;5071918;28;20035;-67
2022/04/16 03:28:25;;;;;;;72.75;27.58;;;7.60;99.90;;;;;;5081800;28;20392;-66
2022/04/16 03:30:50;;;;;;;91.93;30.88;;;7.50;99.90;;;;;;5092458;28;20019;-66
2022/04/16 03:33:16;;;;;;;88.25;31.95;;;7.50;99.90;;;;;;5091025;28;20107;-66
2022/04/16 03:35:42;;;;;;;80.25;29.42;;;7.40;99.90;;;;;;5090847;28;20032;-66
2022/04/16 03:38:08;;;;;;;92.30;30.55;;;7.40;99.90;;;;;;5092013;28;20024;-66
2022/04/16 03:40:34;;;;;;;84.32;28.92;;;7.30;99.90;;;;;;5092223;28;20029;-66
2022/04/16 03:43:01;;;;;;;92.82;31.90;;;7.30;99.90;;;;;;5091001;28;20031;-67
2022/04/16 03:45:30;;;;;;;94.47;32.78;;;7.40;99.90;;;;;;5092217;28;20024;-66
2022/04/16 03:47:57;;;;;;;80.38;28.88;;;7.30;99.90;;;;;;5091393;28;20104;-66
2022/04/16 03:50:24;;;;;;;88.28;29.42;;;7.30;99.90;;;;;;5092061;28;20174;-66
2022/04/16 03:52:52;;;;;;;90.13;32.35;;;7.30;99.90;;;;;;5092414;28;20024;-67
2022/04/16 04:00:52;;;;;;;91.25;32.97;;;7.30;99.90;;;;;;5091881;28;20061;-67
2022/04/16 04:03:18;;;;;;;92.75;34.30;;;7.30;99.90;;;;;;5088492;28;20111;-67
2022/04/16 04:05:45;;;;;;;87.30;33.28;;;7.30;99.90;;;;;;5071342;28;20468;-66
2022/04/16 04:08:11;;;;;;;99.22;34.90;;;7.30;99.90;;;;;;5079009;28;20054;-67
2022/04/16 04:10:38;;;;;;;102.22;33.97;;;7.30;99.90;;;;;;5091549;28;20020;-67
2022/04/16 04:13:04;;;;;;;102.20;36.65;;;7.30;99.90;;;;;;5091414;28;20455;-67
2022/04/16 04:15:30;;;;;;;93.03;34.50;;;7.30;99.90;;;;;;5090472;28;20472;-66
2022/04/16 04:17:57;;;;;;;101.88;35.42;;;7.30;99.90;;;;;;5088080;28;20415;-66
2022/04/16 04:20:23;;;;;;;99.18;37.55;;;7.30;99.90;;;;;;5069367;28;20037;-66
2022/04/16 04:22:49;;;;;;;104.85;35.70;;;7.30;99.90;;;;;;5071279;28;20081;-66
2022/04/16 04:25:15;;;;;;;96.15;35.25;;;7.30;99.90;;;;;;5070839;28;20111;-67
2022/04/16 04:27:40;;;;;;;111.53;37.78;;;7.20;99.90;;;;;;5074063;28;20597;-67
2022/04/16 04:30:07;;;;;;;106.32;36.65;;;7.20;99.90;;;;;;5091302;28;20360;-67
2022/04/16 04:32:33;;;;;;;102.63;37.47;;;7.10;99.90;;;;;;5087811;28;20516;-67
2022/04/16 04:34:58;;;;;;;97.13;34.65;;;7.10;99.90;;;;;;5073160;28;20039;-67
2022/04/16 04:37:24;;;;;;;96.63;34.53;;;7.10;99.90;;;;;;5069594;28;20029;-67
2022/04/16 04:39:50;;;;;;;97.40;35.28;;;7.20;99.90;;;;;;5091108;28;20095;-67
2022/04/16 04:42:30;;;;;;;100.85;36.30;;;7.20;99.90;;;;;;5091198;28;20032;-67
2022/04/16 04:44:56;;;;;;;92.30;34.35;;;7.10;99.90;;;;;;5091046;28;20028;-67
2022/04/16 04:47:22;;;;;;;99.63;36.17;;;7.10;99.90;;;;;;5090873;28;20158;-67
2022/04/16 04:49:49;;;;;;;96.65;35.75;;;7.10;99.90;;;;;;5078629;28;20152;-67
2022/04/16 04:52:29;;;;;;;96.45;34.78;;;7.10;99.90;;;;;;5070640;28;20021;-66
2022/04/16 04:54:56;;;;;;;96.55;34.28;;;7.10;99.90;;;;;;5070593;28;20068;-67
2022/04/16 04:57:22;;;;;;;97.18;34.80;;;7.10;99.90;;;;;;5070508;28;20032;-67
2022/04/16 04:59:48;;;;;;;89.03;35.22;;;7.00;99.90;;;;;;5090707;28;20036;-67
2022/04/16 05:02:14;;;;;;;96.15;34.92;;;6.90;99.90;;;;;;5088268;28;20380;-67
2022/04/16 05:04:39;;;;;;;95.88;35.60;;;6.80;99.90;;;;;;5077003;28;20016;-67
2022/04/16 05:07:07;;;;;;;90.30;33.92;;;6.80;99.90;;;;;;5068279;28;20037;-67
2022/04/16 05:09:33;;;;;;;99.03;35.55;;;6.80;99.90;;;;;;5088088;28;20124;-67
2022/04/16 05:11:58;;;;;;;98.57;34.45;;;6.90;99.90;;;;;;5090622;28;20461;-67
2022/04/16 05:14:24;;;;;;;97.68;35.72;;;6.90;99.90;;;;;;5090539;28;20078;-67
2022/04/16 05:16:50;;;;;;;89.72;35.03;;;6.90;99.90;;;;;;5090889;28;20060;-67
2022/04/16 05:19:16;;;;;;;102.70;35.63;;;7.00;99.90;;;;;;5084409;28;20021;-67
2022/04/16 05:21:42;;;;;;;93.68;34.38;;;6.90;99.90;;;;;;5067830;28;20031;-68
2022/04/16 05:24:08;;;;;;;101.65;37.00;;;7.00;99.90;;;;;;5067583;28;20028;-68
2022/04/16 05:26:34;;;;;;;94.60;34.45;;;7.00;99.90;;;;;;5067568;28;20044;-68
2022/04/16 05:29:00;;;;;;;98.50;38.33;;;7.00;99.90;;;;;;5080081;28;20476;-68
2022/04/16 05:31:27;;;;;;;98.85;38.28;;;7.00;99.90;;;;;;5087834;28;20070;-67
2022/04/16 05:36:39;;;;;;;94.15;37.13;;;7.20;99.90;;;;;;5067264;28;20039;-66
2022/04/16 05:39:04;;;;;;;96.25;37.45;;;7.20;99.90;;;;;;5080252;28;20024;-67
2022/04/16 05:41:33;;;;;;;99.65;38.20;;;7.40;99.90;;;;;;5087283;28;20032;-67
2022/04/16 05:43:59;;;;;;;94.05;37.33;;;7.50;99.90;;;;;;5087409;28;20085;-67
2022/04/16 05:46:25;;;;;;;95.93;39.97;;;7.60;99.90;;;;;;5088550;28;20500;-66
2022/04/16 05:48:50;;;;;;;94.35;37.72;;;7.80;99.90;;;;;;5089876;28;20077;-67
2022/04/16 05:51:16;;;;;;;88.70;38.55;;;7.90;99.90;;;;;;5070324;28;20024;-66
2022/04/16 05:53:42;;;;;;;84.72;36.15;;;8.00;99.90;;;;;;5070170;28;20025;-67
2022/04/16 05:56:09;;;;;;;91.75;37.38;;;8.10;99.90;;;;;;5070170;28;20040;-66
2022/04/16 05:58:36;;;;;;;95.80;38.33;;;8.20;99.90;;;;;;5079369;28;20426;-67
2022/04/16 06:01:03;;;;;;;91.43;36.35;;;8.30;99.90;;;;;;5089125;28;20012;-67
2022/04/16 06:03:29;;;;;;;91.50;39.33;;;8.40;99.90;;;;;;5087244;28;20038;-69
2022/04/16 06:05:56;;;;;;;85.60;35.28;;;8.40;99.90;;;;;;5069697;28;20427;-68
2022/04/16 06:08:21;;;;;;;79.65;34.10;;;8.40;99.90;;;;;;5074276;28;20023;-67
2022/04/16 06:10:47;;;;;;;86.85;36.35;;;8.50;99.90;;;;;;5090358;28;20076;-67
2022/04/16 06:13:13;;;;;;;83.10;36.63;;;8.50;99.90;;;;;;5090652;28;20492;-67
2022/04/16 06:15:41;;;;;;;84.10;35.72;;;8.50;99.90;;;;;;5090120;28;20030;-66
2022/04/16 06:18:08;;;;;;;85.63;36.97;;;8.50;99.90;;;;;;5090013;28;20031;-66
2022/04/16 06:20:35;;;;;;;101.43;38.45;;;8.60;99.90;;;;;;5076513;28;20431;-67
2022/04/16 06:23:01;;;;;;;74.25;34.85;;;8.70;99.90;;;;;;5069980;28;20025;-68
2022/04/16 06:25:26;;;;;;;84.40;36.50;;;8.70;99.90;;;;;;5070055;28;20021;-67
2022/04/16 06:27:52;;;;;;;78.85;33.60;;;8.70;99.90;;;;;;5076337;28;20475;-67
2022/04/16 06:30:18;;;;;;;85.05;35.58;;;8.70;99.90;;;;;;5093516;28;20030;-67
2022/04/16 06:32:43;;;;;;;90.20;35.13;;;8.70;99.90;;;;;;5090483;28;20063;-67
2022/04/16 06:35:12;;;;;;;85.22;35.88;;;8.80;99.90;;;;;;5081047;28;20039;-67
2022/04/16 06:37:39;;;;;;;82.72;35.72;;;8.90;99.90;;;;;;5073134;28;20024;-67
2022/04/16 06:40:06;;;;;;;87.32;35.25;;;9.00;99.90;;;;;;5093410;28;20488;-67
2022/04/16 06:42:32;;;;;;;78.63;34.03;;;9.10;99.90;;;;;;5093551;28;20396;-67
2022/04/16 06:44:58;;;;;;;76.40;33.80;;;9.20;99.90;;;;;;5093579;28;20055;-68
2022/04/16 06:47:24;;;;;;;78.35;33.95;;;9.30;99.90;;;;;;5093339;28;20085;-67
2022/04/16 06:49:50;;;;;;;72.78;32.58;;;9.40;99.90;;;;;;5087556;28;20070;-66
2022/04/16 06:52:19;;;;;;;77.10;33.78;;;9.50;99.90;;;;;;5073374;28;20028;-68
2022/04/16 06:54:46;;;;;;;78.60;34.42;;;9.60;99.90;;;;;;5072937;28;20266;-68
2022/04/16 06:57:13;;;;;;;77.95;35.60;;;9.80;99.90;;;;;;5073052;28;20075;-68
2022/04/16 06:59:38;;;;;;;81.53;35.50;;;9.80;99.90;;;;;;5090044;28;20020;-68
2022/04/16 07:02:09;;;;;;;74.50;33.42;;;9.90;99.90;;;;;;5091014;28;20034;-68
2022/04/16 07:04:35;;;;;;;74.15;33.65;;;10.00;99.90;;;;;;5087158;28;20020;-67
2022/04/16 07:07:00;;;;;;;78.88;35.40;;;10.00;99.90;;;;;;5070686;28;20130;-67
2022/04/16 07:09:26;;;;;;;75.85;33.25;;;10.20;99.90;;;;;;5087979;28;20043;-67
2022/04/16 07:11:52;;;;;;;73.72;33.33;;;10.10;99.90;;;;;;5092852;28;20020;-68
2022/04/16 07:14:19;;;;;;;75.45;33.90;;;10.20;99.90;;;;;;5092692;28;20028;-68
2022/04/16 07:16:44;;;;;;;74.45;34.35;;;10.20;99.90;;;;;;5092871;28;20051;-68
2022/04/16 07:19:12;;;;;;;76.63;35.28;;;10.30;99.90;;;;;;5091273;28;20051;-67
2022/04/16 07:21:37;;;;;;;76.57;35.30;;;10.40;99.90;;;;;;5072772;28;20028;-68
2022/04/16 07:24:03;;;;;;;70.57;33.95;;;10.50;99.90;;;;;;5088698;28;20126;-67
2022/04/16 07:26:29;;;;;;;70.53;35.28;;;10.60;99.90;;;;;;5082168;28;20032;-66
2022/04/16 07:28:55;;;;;;;77.28;34.85;;;10.70;99.90;;;;;;5090099;28;20557;-68
2022/04/16 07:31:21;;;;;;;77.30;37.10;;;10.80;99.90;;;;;;5092027;28;20052;-68
2022/04/16 07:33:46;;;;;;;75.70;36.80;;;10.90;99.90;;;;;;5091204;28;20115;-68
2022/04/16 07:36:12;;;;;;;81.57;37.38;;;11.00;99.90;;;;;;5091502;28;20165;-68
2022/04/16 07:38:38;;;;;;;74.72;35.75;;;11.00;99.90;;;;;;5085169;28;20112;-66
2022/04/16 07:41:04;;;;;;;75.78;37.15;;;11.10;99.90;;;;;;5091394;28;20629;-68
2022/04/16 07:43:30;;;;;;;72.50;35.17;;;11.20;99.90;;;;;;5091268;28;20020;-69
2022/04/16 07:45:56;;;;;;;75.78;36.20;;;11.30;99.90;;;;;;5091311;28;20036;-68
2022/04/16 07:48:21;;;;;;;74.35;38.00;;;11.30;99.90;;;;;;5089017;28;20032;-67
2022/04/16 07:50:47;;;;;;;76.82;37.40;;;11.30;99.90;;;;;;5091383;28;20549;-66
2022/04/16 07:53:13;;;;;;;74.40;36.83;;;11.40;99.90;;;;;;5075788;28;20032;-67
2022/04/16 07:55:39;;;;;;;78.32;40.05;;;11.50;99.90;;;;;;5072128;28;20443;-68
2022/04/16 07:58:05;;;;;;;70.95;36.83;;;11.70;99.90;;;;;;5090975;28;20024;-67
2022/04/16 08:00:30;;;;;;;72.63;36.13;;;11.70;99.90;;;;;;5091200;28;20587;-67
2022/04/16 08:02:56;;;;;;;78.47;38.70;;;11.80;99.90;;;;;;5091934;28;20032;-70
2022/04/16 08:05:22;;;;;;;64.07;35.75;;;11.80;99.90;;;;;;5091123;28;20024;-68
2022/04/16 08:07:49;;;;;;;71.18;37.10;;;11.90;99.90;;;;;;5086787;28;20572;-68
2022/04/16 08:10:15;;;;;;;71.63;36.83;;;11.90;99.90;;;;;;5089982;28;20032;-68
2022/04/16 08:12:40;;;;;;;67.57;36.45;;;12.00;99.90;;;;;;5091369;28;20036;-67
2022/04/16 08:15:06;;;;;;;71.97;37.63;;;12.10;99.90;;;;;;5091434;28;20499;-67
2022/04/16 08:17:33;;;;;;;70.85;36.92;;;12.10;99.90;;;;;;5090732;28;20119;-68
2022/04/16 08:19:59;;;;;;;66.15;36.42;;;12.20;99.90;;;;;;5090720;28;20081;-68
2022/04/16 08:22:28;;;;;;;68.13;38.15;;;12.30;99.90;;;;;;5089802;28;20393;-68
2022/04/16 08:27:39;;;;;;;66.13;34.92;;;12.50;99.90;;;;;;5085670;28;20508;-68
2022/04/16 08:30:07;;;;;;;67.07;33.97;;;12.60;99.90;;;;;;5089411;28;20055;-69
2022/04/16 08:32:36;;;;;;;63.03;36.05;;;12.80;99.90;;;;;;5089406;28;20568;-69
2022/04/16 08:35:03;;;;;;;62.78;34.30;;;12.90;99.90;;;;;;5089242;28;20028;-67
2022/04/16 08:37:29;;;;;;;61.28;35.92;;;12.90;99.90;;;;;;5081431;28;20020;-68
2022/04/16 08:39:55;;;;;;;64.50;34.45;;;13.00;99.90;;;;;;5089567;28;20477;-67
2022/04/16 08:42:22;;;;;;;60.63;35.17;;;13.10;99.90;;;;;;5091474;28;20489;-67
2022/04/16 08:44:47;;;;;;;62.92;35.20;;;13.10;99.90;;;;;;5091757;28;20055;-69
2022/04/16 08:47:14;;;;;;;61.45;34.80;;;13.20;99.90;;;;;;5089714;28;20569;-68
2022/04/16 08:49:41;;;;;;;62.50;34.03;;;13.30;99.90;;;;;;5090712;28;20020;-69
2022/04/16 08:52:08;;;;;;;57.47;32.25;;;13.30;99.90;;;;;;5087062;28;20028;-67
2022/04/16 08:54:39;;;;;;;54.92;32.63;;;13.40;99.90;;;;;;5085256;28;20400;-69
2022/04/16 08:57:05;;;;;;;56.30;31.98;;;13.60;99.90;;;;;;5090726;28;20040;-68
2022/04/16 08:59:31;;;;;;;56.67;30.85;;;13.60;99.90;;;;;;5083695;28;20503;-67
2022/04/16 09:01:59;;;;;;;51.78;32.10;;;13.80;99.90;;;;;;5089748;28;20042;-66
2022/04/16 09:04:28;;;;;;;52.40;30.55;;;13.80;99.90;;;;;;5091092;28;20028;-67
2022/04/16 09:07:02;;;;;;;50.40;29.58;;;13.90;99.90;;;;;;5090172;28;20031;-67
2022/04/16 09:09:28;;;;;;;54.40;31.58;;;13.90;99.90;;;;;;5088753;28;20548;-66
2022/04/16 09:11:55;;;;;;;49.95;29.60;;;14.00;99.90;;;;;;5080237;28;20511;-65
2022/04/16 09:14:36;;;;;;;47.10;28.80;;;14.00;99.90;;;;;;5070786;28;20024;-65
2022/04/16 09:17:06;;;;;;;52.65;28.85;;;14.10;99.90;;;;;;5069246;28;20083;-65
2022/04/16 09:19:32;;;;;;;51.53;30.00;;;14.20;99.90;;;;;;5084914;28;20066;-65
2022/04/16 09:21:58;;;;;;;45.40;27.40;;;14.30;99.90;;;;;;5090086;28;20028;-66
2022/04/16 09:24:24;;;;;;;52.25;30.48;;;14.40;99.90;;;;;;5070580;28;20024;-65
2022/04/16 09:26:50;;;;;;;47.08;29.27;;;14.40;99.90;;;;;;5070520;28;20040;-65
2022/04/16 09:29:19;;;;;;;48.88;28.75;;;14.50;99.90;;;;;;5080983;28;20670;-65
2022/04/16 09:31:46;;;;;;;41.38;25.92;;;14.60;99.90;;;;;;5090565;28;20609;-65
2022/04/16 09:34:20;;;;;;;43.67;28.10;;;14.60;99.90;;;;;;5089267;28;20107;-65
2022/04/16 09:36:47;;;;;;;50.55;28.85;;;14.60;99.90;;;;;;5090636;28;20399;-66
2022/04/16 09:39:13;;;;;;;44.67;27.35;;;14.70;99.90;;;;;;5083983;28;20556;-66
2022/04/16 09:41:41;;;;;;;45.60;27.20;;;14.80;99.90;;;;;;5089138;28;20048;-66
2022/04/16 09:44:21;;;;;;;46.90;26.55;;;14.80;99.90;;;;;;5090699;28;20037;-66
2022/04/16 09:46:48;;;;;;;47.53;27.17;;;15.00;99.90;;;;;;5090455;28;20034;-66
2022/04/16 09:49:16;;;;;;;40.60;24.50;;;15.00;99.90;;;;;;5090463;28;20687;-66
2022/04/16 09:51:43;;;;;;;41.88;25.40;;;15.10;99.90;;;;;;5090805;28;20046;-66
2022/04/16 09:54:10;;;;;;;35.55;23.65;;;15.20;99.90;;;;;;5073610;28;20021;-66
2022/04/16 09:56:37;;;;;;;37.78;22.63;;;15.30;99.90;;;;;;5070163;28;20048;-66
2022/04/16 09:59:05;;;;;;;38.45;24.55;;;15.30;99.90;;;;;;5079930;28;20030;-66
2022/04/16 10:01:32;;;;;;;36.95;23.30;;;15.40;99.90;;;;;;5088159;28;20024;-66
2022/04/16 10:04:00;;;;;;;34.22;20.77;;;15.50;99.90;;;;;;5090911;28;20111;-66
2022/04/16 10:06:28;;;;;;;36.13;22.65;;;15.60;99.90;;;;;;5082294;28;20024;-66
2022/04/16 10:08:55;;;;;;;33.55;21.30;;;15.70;99.90;;;;;;5082944;28;20031;-66
2022/04/16 10:12:59;;;;;;;31.83;18.58;;;15.70;99.90;;;;;;5088271;28;20020;-67
2022/04/16 10:14:46;;;;;;;31.00;19.02;;;15.70;99.90;;;;;;5078185;28;20488;-66
2022/04/16 10:17:21;;;;;;;32.75;18.45;;;15.80;99.90;;;;;;5093560;28;20044;-66
2022/04/16 10:19:47;;;;;;;33.55;18.33;;;15.80;99.90;;;;;;5087494;28;20490;-66
2022/04/16 10:22:27;;;;;;;31.20;17.95;;;15.90;99.90;;;;;;5093348;28;20043;-64
2022/04/16 10:24:57;;;;;;;29.20;17.05;;;16.00;99.90;;;;;;5091413;28;20032;-61
2022/04/16 10:27:28;;;;;;;28.75;17.08;;;16.10;99.90;;;;;;5093082;28;20074;-63
2022/04/16 10:29:59;;;;;;;29.40;16.05;;;16.20;99.90;;;;;;5093152;28;20023;-63
2022/04/16 10:32:38;;;;;;;24.50;14.43;;;16.20;99.90;;;;;;5090371;28;20160;-65
2022/04/16 10:35:12;;;;;;;22.10;13.18;;;16.40;99.90;;;;;;5089890;28;20063;-63
2022/04/16 10:37:40;;;;;;;22.23;14.30;;;16.50;98.40;;;;;;5092703;28;20558;-63
2022/04/16 10:40:22;;;;;;;20.85;13.02;;;16.50;98.60;;;;;;5091317;28;20069;-63
2022/04/16 10:42:48;;;;;;;;;;;16.60;99.30;;;;;;5093766;28;20024;-63
2022/04/16 10:45:15;;;;;;;21.25;12.43;;;16.70;97.20;;;;;;5090189;28;19912;-63
2022/04/16 10:47:41;;;;;;;23.17;14.20;;;16.80;97.50;;;;;;5094552;28;20580;-63
2022/04/16 10:50:18;;;;;;;20.25;12.77;;;16.90;99.90;;;;;;5093332;28;20056;-63
2022/04/16 10:52:53;;;;;;;20.52;13.63;;;17.00;98.60;;;;;;5093698;28;20028;-63
2022/04/16 10:55:21;;;;;;;24.77;15.55;;;17.10;99.30;;;;;;5089500;28;20043;-63
2022/04/16 10:57:59;;;;;;;30.67;17.55;;;17.20;99.40;;;;;;5092998;28;20073;-64
2022/04/16 11:00:36;;;;;;;29.10;17.15;;;17.30;99.90;;;;;;5093152;28;20123;-63
2022/04/16 11:03:09;;;;;;;26.98;14.93;;;17.40;99.90;;;;;;5092778;28;20016;-64
2022/04/16 11:05:40;;;;;;;23.38;14.23;;;17.40;97.40;;;;;;5092660;28;20012;-64
2022/04/16 11:08:07;;;;;;;26.13;15.77;;;17.50;98.80;;;;;;5091487;28;20362;-63
2022/04/16 11:10:33;;;;;;;24.02;16.38;;;17.50;98.10;;;;;;5092782;28;20024;-62
2022/04/16 11:13:01;;;;;;;29.00;17.58;;;17.50;95.80;;;;;;5092227;28;20063;-64
2022/04/16 11:15:28;;;;;;;25.42;16.77;;;17.60;97.30;;;;;;5092089;28;20016;-64
2022/04/16 11:17:58;;;;;;;25.55;16.33;;;17.70;94.90;;;;;;5086158;28;20493;-63
2022/04/16 11:20:25;;;;;;;27.35;15.88;;;17.70;95.80;;;;;;5091680;28;20515;-63
2022/04/16 11:22:52;;;;;;;27.83;16.42;;;17.80;93.10;;;;;;5091148;28;20028;-63
2022/04/16 11:25:22;;;;;;;27.05;17.13;;;17.90;94.20;;;;;;5085776;28;20077;-62
2022/04/16 11:36:19;;;;;;;23.77;15.25;;;18.10;93.20;;;;;;5074972;28;20166;-63
2022/04/16 11:38:45;;;;;;;26.67;17.17;;;18.20;92.60;;;;;;5072022;28;20025;-66
2022/04/16 11:41:12;;;;;;;25.25;15.70;;;18.20;87.10;;;;;;5072269;28;20078;-64
2022/04/16 11:43:51;;;;;;;26.67;17.52;;;18.20;80.40;;;;;;5079226;28;20024;-64
2022/04/16 11:46:17;;;;;;;30.05;18.33;;;18.20;86.00;;;;;;5092293;28;20506;-62
2022/04/16 11:48:44;;;;;;;31.70;19.77;;;18.40;90.40;;;;;;5097061;28;20511;-62
2022/04/16 11:51:12;;;;;;;31.45;20.67;;;18.40;85.70;;;;;;5112568;28;20015;-63
2022/04/16 11:53:51;;;;;;;34.08;19.45;;;18.50;89.10;;;;;;5103691;28;20060;-67
2022/04/16 11:56:20;;;;;;;33.47;22.05;;;18.70;92.20;;;;;;5091494;28;20028;-68
2022/04/16 11:58:52;;;;;;;36.50;22.30;;;19.20;80.50;;;;;;5085538;28;20025;-67
2022/04/16 12:01:21;;;;;;;31.23;21.27;;;19.70;80.80;;;;;;5071287;28;20031;-67
2022/04/16 12:03:48;;;;;;;28.55;19.77;;;20.40;74.10;;;;;;5071452;28;20385;-68
2022/04/16 12:06:15;;;;;;;29.38;20.35;;;21.00;74.60;;;;;;5071547;28;20029;-70
2022/04/16 12:08:42;;;;;;;27.08;19.02;;;21.80;68.60;;;;;;5073707;28;20032;-69
2022/04/16 12:11:09;;;;;;;26.10;19.02;;;22.30;58.50;;;;;;5091815;28;20111;-69
2022/04/16 12:13:36;;;;;;;24.77;19.55;;;22.80;53.20;;;;;;5091716;28;20028;-69
2022/04/16 12:16:07;;;;;;;28.20;18.88;;;23.00;57.70;;;;;;5090825;28;20085;-70
2022/04/16 12:18:37;;;;;;;24.63;17.98;;;23.50;52.40;;;;;;5086477;28;20025;-68
2022/04/16 12:21:17;;;;;;;23.70;17.52;;;23.60;51.00;;;;;;5070976;28;20109;-67
2022/04/16 12:23:45;;;;;;;24.33;17.52;;;23.60;49.00;;;;;;5070873;28;20013;-69
2022/04/16 12:26:16;;;;;;;23.50;16.25;;;23.80;48.30;;;;;;5071105;28;20107;-68
2022/04/16 12:28:56;;;;;;;21.65;16.55;;;24.20;50.40;;;;;;5075954;28;20067;-67
2022/04/16 12:31:29;;;;;;;19.30;15.80;;;24.10;41.60;;;;;;5091048;28;20074;-68
2022/04/16 12:33:56;;;;;;;19.45;15.20;;;24.60;45.40;;;;;;5091118;28;20507;-69
2022/04/16 12:36:21;;;;;;;20.52;15.60;;;24.40;41.80;;;;;;5091394;28;20122;-68
2022/04/16 12:38:47;;;;;;;19.67;15.43;;;24.90;44.80;;;;;;5089475;28;20469;-68
2022/04/16 12:41:13;;;;;;;20.50;15.68;;;25.30;41.80;;;;;;5070733;28;20032;-68
2022/04/16 12:43:40;;;;;;;17.75;15.07;;;25.40;39.40;;;;;;5070868;28;20033;-68
2022/04/16 12:46:06;;;;;;;19.45;15.30;;;25.40;38.00;;;;;;5070224;28;20085;-68
2022/04/16 12:48:31;;;;;;;18.33;14.93;;;25.20;39.20;;;;;;5073857;28;20032;-66
2022/04/16 12:50:57;;;;;;;16.83;13.75;;;25.50;39.10;;;;;;5090980;28;20024;-68
2022/04/16 12:53:24;;;;;;;17.35;14.02;;;25.80;40.50;;;;;;5091030;28;20105;-67
2022/04/16 12:55:50;;;;;;;15.40;13.65;;;25.70;38.50;;;;;;5072834;28;20035;-67
2022/04/16 12:58:16;;;;;;;18.88;14.25;;;25.90;42.50;;;;;;5071759;28;20377;-68